Monday, July 23, 2018, 7:44 AM EDT
Back to Local

KLWM, Lawrence Municipal Airport

Location: North Andover, MA, United States Lat: 42.717
Local Time: 7:44 AM EDT (11:44 GMT) Lon: -71.133
Time Zone: US/Eastern Elev: 147 ft

Show me the last for .
Show Decoded

2018-07-23 06:54 METAR KLWM 231054Z AUTO 12004KT 6SM HZ FEW006 BKN017 OVC023 24/22 A3021 RMK AO2
                 SLP230 T02440217 $ =
2018-07-23 06:34 METAR KLWM 231034Z AUTO 13003KT 7SM FEW006 BKN020 OVC025 24/22 A3021 RMK AO2
                 T02440217 $ =
2018-07-23 05:54 METAR KLWM 230954Z AUTO 12004KT 7SM BKN016 OVC020 24/22 A3021 RMK AO2 SLP227
                 T02440217 $ =
2018-07-23 05:30 METAR KLWM 230930Z AUTO 12004KT 8SM SCT008 BKN015 OVC020 24/22 A3020 RMK AO2
                 T02440217 $ =
2018-07-23 05:01 METAR KLWM 230901Z AUTO 13006KT 6SM HZ BKN008 OVC013 24/22 A3019 RMK AO2 CIG
                 005V011 T02440217 $ =
2018-07-23 04:54 METAR KLWM 230854Z AUTO 12006KT 6SM HZ SCT006 OVC012 24/22 A3019 RMK AO2 RAE46
                 SLP221 P0002 60009 T02440217 51003 $ =
2018-07-23 03:54 METAR KLWM 230754Z AUTO VRB05KT 8SM -RA BKN009 OVC017 24/22 A3018 RMK AO2 RAB05
                 CIG 005V013 SLP218 P0007 T02440217 $ =
2018-07-23 03:39 METAR KLWM 230739Z AUTO 12007KT 5SM -RA FEW009 BKN013 OVC021 24/22 A3018 RMK AO2
                 RAB05 P0007 T02440217 $ =
2018-07-23 03:26 METAR KLWM 230726Z AUTO 12004KT 3SM -RA SCT012 BKN018 OVC024 24/22 A3018 RMK AO2
                 RAB05 P0005 T02440217 $ =
2018-07-23 02:54 METAR KLWM 230654Z AUTO 11004KT 8SM OVC014 24/22 A3018 RMK AO2 SLP218 T02440217
                 $ =
2018-07-23 02:08 METAR KLWM 230608Z AUTO 12005KT 8SM FEW008 OVC013 24/22 A3018 RMK AO2 T02440217
                 $ =
2018-07-23 01:54 METAR KLWM 230554Z AUTO VRB04KT 7SM OVC013 24/22 A3018 RMK AO2 RAE33 SLP218
                 P0000 60003 T02440217 10244 20233 58002 $ =
2018-07-23 01:42 METAR KLWM 230542Z AUTO VRB05KT 7SM OVC011 24/22 A3018 RMK AO2 RAE33 P0000
                 T02440217 $ =
2018-07-23 00:54 METAR KLWM 230454Z AUTO 12005KT 6SM -RA BKN009 OVC014 24/22 A3018 RMK AO2
                 RAE0355B48 CIG 005V012 SLP219 P0000 T02440217 402720189 $ =
2018-07-23 00:52 METAR KLWM 230452Z AUTO 12006KT 6SM -RA BKN009 OVC014 24/22 A3018 RMK AO2
                 RAE0355B48 CIG 005V012 P0000 $ =
2018-07-23 00:15 METAR KLWM 230415Z AUTO 12006KT 8SM FEW007 OVC012 24/22 A3018 RMK AO2 RAE0355
                 P0000 T02440217 $ =
2018-07-22 23:54 METAR KLWM 230354Z AUTO 12004KT 9SM -RA OVC010 24/22 A3018 RMK AO2 RAB42 SLP220
                 P0000 T02440217 $ =
2018-07-22 23:39 METAR KLWM 230339Z AUTO 12005KT 8SM BKN010 OVC015 24/22 A3019 RMK AO2 CIG
                 009V013 T02440217 $ =
2018-07-22 22:54 METAR KLWM 230254Z AUTO 10005KT 10SM OVC019 24/21 A3018 RMK AO2 SLP220 60003
                 T02390211 51012 $ =
2018-07-22 21:54 METAR KLWM 230154Z 11005KT 10SM BKN021 OVC029 23/21 A3018 RMK AO2 RAB12E52
                 SLP219 P0003 T02330206 $ =
2018-07-22 21:13 METAR KLWM 230113Z 11005KT 10SM -RA BKN030 BKN050 OVC060 24/21 A3018 RMK AO2
                 RAB12 P0000 T02390206 $ =
2018-07-22 20:54 METAR KLWM 230054Z 10007KT 10SM BKN029 OVC033 24/21 A3017 RMK AO2 RAB32E49
                 SLP215 P0000 T02440206 $ =
2018-07-22 20:19 METAR KLWM 230019Z 10004KT 10SM FEW002 SCT034 BKN046 25/21 A3016 RMK AO2
                 T02500206 $ =
2018-07-22 19:54 METAR KLWM 222354Z 09003KT 10SM FEW037 SCT045 BKN050 26/21 A3015 RMK AO2 SLP207
                 60000 T02560211 10272 20256 51010 $ =
2018-07-22 18:54 METAR KLWM 222254Z 10005KT 10SM BKN040 OVC047 26/21 A3014 RMK AO2 SLP204
                 T02610211 $ =
2018-07-22 17:54 METAR KLWM 222154Z 12003KT 10SM SCT011 BKN042 BKN049 27/22 A3013 RMK AO2 SLP201
                 T02670217 $ =
2018-07-22 16:54 METAR KLWM 222054Z 12005KT 10SM OVC060 27/22 A3012 RMK AO2 SLP197 60000
                 T02720217 52002 $ =
2018-07-22 15:54 METAR KLWM 221954Z 11005KT 10SM FEW013 27/22 A3012 RMK AO2 RAE1856 SLP197 P0000
                 T02670217 $ =
2018-07-22 15:09 METAR KLWM 221909Z VRB05KT 10SM FEW013 BKN020 OVC070 27/22 A3012 RMK AO2 RAE1856
                 P0000 T02670217 $ =
2018-07-22 14:54 METAR KLWM 221854Z 16004KT 10SM -RA FEW013 SCT046 BKN070 27/22 A3011 RMK AO2
                 RAE24B41 SLP195 P0000 T02670222 $ =
2018-07-22 14:49 METAR KLWM 221849Z VRB04KT 10SM -RA FEW011 BKN050 OVC070 27/22 A3011 RMK AO2
                 RAE24B41 P0000 $ =
2018-07-22 13:54 METAR KLWM 221754Z 16003KT 10SM -RA BKN007 BKN044 OVC110 26/22 A3011 RMK AO2
                 SLP193 P0000 60007 T02560222 10256 20206 53000 $ =
2018-07-22 12:54 METAR KLWM 221654Z VRB04KT 5SM -RA OVC006 24/22 A3009 RMK AO2 SLP190 P0000
                 T02440217 $ =
2018-07-22 11:54 METAR KLWM 221554Z 09006KT 9SM -RA BKN006 OVC018 24/21 A3009 RMK AO2 CIG 005V011
                 SLP189 P0000 T02440211 $ =
2018-07-22 11:42 METAR KLWM 221542Z 09006KT 7SM -RA BKN005 BKN020 24/21 A3009 RMK AO2 CIG 004V008
                 P0000 T02440211 $ =
2018-07-22 10:54 METAR KLWM 221454Z 07006KT 6SM -RA OVC004 23/20 A3011 RMK AO2 SLP194 P0002 60007
                 T02280200 51002 $ =
2018-07-22 10:35 METAR KLWM 221435Z 07006KT 3SM -RA BR OVC004 22/20 A3011 RMK AO2 P0002 T02220200
                 $ =
2018-07-22 10:25 METAR KLWM 221425Z 07007KT 2 1/2SM -RA BR OVC004 22/20 A3011 RMK AO2 P0001
                 T02220200 $ =
2018-07-22 09:54 METAR KLWM 221354Z 09008KT 1 3/4SM -RA BR OVC004 22/19 A3010 RMK AO2 SLP193
                 P0000 T02170194 $ =
2018-07-22 09:37 METAR KLWM 221337Z 07008KT 1 1/2SM -RA OVC004 22/19 A3010 RMK AO2 P0000
                 T02170189 $ =
2018-07-22 08:54 METAR KLWM 221254Z 07008KT 1 1/4SM -RA OVC005 21/18 A3010 RMK AO2 SLP193 P0005
                 T02110183 $ =
2018-07-22 08:41 METAR KLWM 221241Z 07009KT 1 1/2SM -RA OVC005 21/18 A3011 RMK AO2 P0005
                 T02110183 $ =
2018-07-22 08:30 METAR KLWM 221230Z 06012G15KT 2 1/2SM -RA OVC005 21/18 A3010 RMK AO2 P0005
                 T02110183 $ =
2018-07-22 08:20 METAR KLWM 221220Z 07008KT 3SM -RA OVC004 21/18 A3011 RMK AO2 P0005 T02110183 $
                 =
2018-07-22 07:54 METAR KLWM 221154Z 07009KT 1 1/2SM -RA OVC004 21/18 A3010 RMK AO2 RAB1057E08B54
                 SLP192 P0000 60000 T02060178 10206 20194 57001 $ =
2018-07-22 07:49 METAR KLWM 221149Z 06009KT 1 1/2SM HZ OVC004 21/18 A3009 RMK AO2 RAB1057E08
                 P0000 $ =

Support USWX by starting your Amazon purchase here.